sensor_id;sensor_type;location;lat;lon;timestamp;P1;durP1;ratioP1;P2;durP2;ratioP2
38725;SDS011;24474;48.906;8.808;2022-12-18T00:01:04;42.70;;;24.23;;
38725;SDS011;24474;48.906;8.808;2022-12-18T00:03:38;40.55;;;23.88;;
38725;SDS011;24474;48.906;8.808;2022-12-18T00:06:04;42.30;;;24.27;;
38725;SDS011;24474;48.906;8.808;2022-12-18T00:08:29;42.47;;;24.05;;
38725;SDS011;24474;48.906;8.808;2022-12-18T00:10:55;42.90;;;23.98;;
38725;SDS011;24474;48.906;8.808;2022-12-18T00:13:27;47.58;;;27.17;;
38725;SDS011;24474;48.906;8.808;2022-12-18T00:15:54;43.47;;;24.45;;
38725;SDS011;24474;48.906;8.808;2022-12-18T00:18:19;46.08;;;24.75;;
38725;SDS011;24474;48.906;8.808;2022-12-18T00:20:45;42.53;;;22.98;;
38725;SDS011;24474;48.906;8.808;2022-12-18T00:23:10;40.35;;;24.70;;
38725;SDS011;24474;48.906;8.808;2022-12-18T00:25:36;42.05;;;22.98;;
38725;SDS011;24474;48.906;8.808;2022-12-18T00:28:03;43.20;;;22.67;;
38725;SDS011;24474;48.906;8.808;2022-12-18T00:30:28;41.03;;;22.92;;
38725;SDS011;24474;48.906;8.808;2022-12-18T00:32:54;46.83;;;23.13;;
38725;SDS011;24474;48.906;8.808;2022-12-18T00:35:21;38.30;;;22.88;;
38725;SDS011;24474;48.906;8.808;2022-12-18T00:37:46;40.92;;;21.92;;
38725;SDS011;24474;48.906;8.808;2022-12-18T00:40:12;74.88;;;33.92;;
38725;SDS011;24474;48.906;8.808;2022-12-18T00:42:38;82.25;;;37.25;;
38725;SDS011;24474;48.906;8.808;2022-12-18T00:45:22;135.85;;;48.95;;
38725;SDS011;24474;48.906;8.808;2022-12-18T00:47:53;87.95;;;38.72;;
38725;SDS011;24474;48.906;8.808;2022-12-18T00:50:20;50.95;;;31.30;;
38725;SDS011;24474;48.906;8.808;2022-12-18T00:52:45;44.00;;;24.17;;
38725;SDS011;24474;48.906;8.808;2022-12-18T00:55:11;40.22;;;23.25;;
38725;SDS011;24474;48.906;8.808;2022-12-18T00:57:37;41.00;;;23.52;;
38725;SDS011;24474;48.906;8.808;2022-12-18T01:00:04;43.97;;;23.90;;
38725;SDS011;24474;48.906;8.808;2022-12-18T01:02:31;43.38;;;23.70;;
38725;SDS011;24474;48.906;8.808;2022-12-18T01:04:57;48.97;;;28.13;;
38725;SDS011;24474;48.906;8.808;2022-12-18T01:07:22;47.95;;;25.88;;
38725;SDS011;24474;48.906;8.808;2022-12-18T01:09:48;41.50;;;23.45;;
38725;SDS011;24474;48.906;8.808;2022-12-18T01:12:14;42.60;;;24.42;;
38725;SDS011;24474;48.906;8.808;2022-12-18T01:14:39;41.83;;;22.92;;
38725;SDS011;24474;48.906;8.808;2022-12-18T01:17:05;41.72;;;23.42;;
38725;SDS011;24474;48.906;8.808;2022-12-18T01:19:31;39.22;;;22.27;;
38725;SDS011;24474;48.906;8.808;2022-12-18T01:21:57;39.05;;;22.58;;
38725;SDS011;24474;48.906;8.808;2022-12-18T01:24:29;40.90;;;22.70;;
38725;SDS011;24474;48.906;8.808;2022-12-18T01:26:55;44.15;;;25.00;;
38725;SDS011;24474;48.906;8.808;2022-12-18T01:29:22;48.88;;;26.02;;
38725;SDS011;24474;48.906;8.808;2022-12-18T01:31:48;47.75;;;25.80;;
38725;SDS011;24474;48.906;8.808;2022-12-18T01:34:14;51.13;;;26.40;;
38725;SDS011;24474;48.906;8.808;2022-12-18T01:36:39;45.75;;;24.40;;
38725;SDS011;24474;48.906;8.808;2022-12-18T01:39:12;47.13;;;25.27;;
38725;SDS011;24474;48.906;8.808;2022-12-18T01:41:39;44.63;;;24.98;;
38725;SDS011;24474;48.906;8.808;2022-12-18T01:49:53;42.60;;;24.70;;
38725;SDS011;24474;48.906;8.808;2022-12-18T01:52:20;45.08;;;25.23;;
38725;SDS011;24474;48.906;8.808;2022-12-18T01:54:47;43.78;;;25.20;;
38725;SDS011;24474;48.906;8.808;2022-12-18T01:57:14;47.67;;;25.48;;
38725;SDS011;24474;48.906;8.808;2022-12-18T01:59:40;44.28;;;24.48;;
38725;SDS011;24474;48.906;8.808;2022-12-18T02:02:10;40.17;;;23.67;;
38725;SDS011;24474;48.906;8.808;2022-12-18T02:04:36;41.55;;;24.25;;
38725;SDS011;24474;48.906;8.808;2022-12-18T02:07:07;41.30;;;22.98;;
38725;SDS011;24474;48.906;8.808;2022-12-18T02:09:57;44.80;;;24.42;;
38725;SDS011;24474;48.906;8.808;2022-12-18T02:12:44;39.50;;;21.23;;
38725;SDS011;24474;48.906;8.808;2022-12-18T02:15:44;40.53;;;23.20;;
38725;SDS011;24474;48.906;8.808;2022-12-18T02:18:10;41.83;;;23.17;;
38725;SDS011;24474;48.906;8.808;2022-12-18T02:31:57;40.60;;;22.60;;
38725;SDS011;24474;48.906;8.808;2022-12-18T02:34:26;42.95;;;23.02;;
38725;SDS011;24474;48.906;8.808;2022-12-18T02:39:23;38.45;;;21.52;;
38725;SDS011;24474;48.906;8.808;2022-12-18T02:41:51;41.60;;;22.23;;
38725;SDS011;24474;48.906;8.808;2022-12-18T02:44:17;40.40;;;22.02;;
38725;SDS011;24474;48.906;8.808;2022-12-18T02:46:44;42.38;;;22.80;;
38725;SDS011;24474;48.906;8.808;2022-12-18T02:51:55;42.40;;;22.15;;
38725;SDS011;24474;48.906;8.808;2022-12-18T02:57:13;37.90;;;21.73;;
38725;SDS011;24474;48.906;8.808;2022-12-18T03:05:13;40.25;;;23.13;;
38725;SDS011;24474;48.906;8.808;2022-12-18T03:07:51;41.25;;;23.02;;
38725;SDS011;24474;48.906;8.808;2022-12-18T03:10:31;37.55;;;21.52;;
38725;SDS011;24474;48.906;8.808;2022-12-18T03:13:02;39.63;;;22.15;;
38725;SDS011;24474;48.906;8.808;2022-12-18T03:18:04;46.00;;;23.92;;
38725;SDS011;24474;48.906;8.808;2022-12-18T03:20:35;42.25;;;23.13;;
38725;SDS011;24474;48.906;8.808;2022-12-18T03:23:09;41.67;;;22.17;;
38725;SDS011;24474;48.906;8.808;2022-12-18T03:25:42;42.72;;;22.88;;
38725;SDS011;24474;48.906;8.808;2022-12-18T03:28:10;41.38;;;21.85;;
38725;SDS011;24474;48.906;8.808;2022-12-18T03:30:40;43.08;;;22.33;;
38725;SDS011;24474;48.906;8.808;2022-12-18T03:33:09;41.40;;;21.80;;
38725;SDS011;24474;48.906;8.808;2022-12-18T03:35:41;38.50;;;21.27;;
38725;SDS011;24474;48.906;8.808;2022-12-18T03:38:08;42.35;;;22.38;;
38725;SDS011;24474;48.906;8.808;2022-12-18T03:43:47;37.20;;;21.77;;
38725;SDS011;24474;48.906;8.808;2022-12-18T03:46:02;40.13;;;22.70;;
38725;SDS011;24474;48.906;8.808;2022-12-18T03:48:35;40.13;;;21.67;;
38725;SDS011;24474;48.906;8.808;2022-12-18T03:51:22;35.92;;;20.77;;
38725;SDS011;24474;48.906;8.808;2022-12-18T03:53:55;39.22;;;21.35;;
38725;SDS011;24474;48.906;8.808;2022-12-18T03:56:31;39.42;;;21.45;;
38725;SDS011;24474;48.906;8.808;2022-12-18T03:59:02;36.13;;;20.83;;
38725;SDS011;24474;48.906;8.808;2022-12-18T04:01:30;39.75;;;22.05;;
38725;SDS011;24474;48.906;8.808;2022-12-18T04:03:59;36.25;;;22.05;;
38725;SDS011;24474;48.906;8.808;2022-12-18T04:06:29;35.65;;;20.92;;
38725;SDS011;24474;48.906;8.808;2022-12-18T04:08:57;35.83;;;21.13;;
38725;SDS011;24474;48.906;8.808;2022-12-18T04:11:23;39.17;;;22.48;;
38725;SDS011;24474;48.906;8.808;2022-12-18T04:13:49;41.30;;;22.55;;
38725;SDS011;24474;48.906;8.808;2022-12-18T04:16:15;37.03;;;22.00;;
38725;SDS011;24474;48.906;8.808;2022-12-18T04:18:40;40.13;;;21.65;;
38725;SDS011;24474;48.906;8.808;2022-12-18T04:21:06;35.47;;;20.95;;
38725;SDS011;24474;48.906;8.808;2022-12-18T04:23:31;38.08;;;20.80;;
38725;SDS011;24474;48.906;8.808;2022-12-18T04:25:57;40.25;;;21.10;;
38725;SDS011;24474;48.906;8.808;2022-12-18T04:28:23;36.67;;;20.30;;
38725;SDS011;24474;48.906;8.808;2022-12-18T04:30:49;35.22;;;19.95;;
38725;SDS011;24474;48.906;8.808;2022-12-18T04:33:14;43.70;;;24.20;;
38725;SDS011;24474;48.906;8.808;2022-12-18T04:35:40;46.45;;;25.20;;
38725;SDS011;24474;48.906;8.808;2022-12-18T04:38:07;47.45;;;23.80;;
38725;SDS011;24474;48.906;8.808;2022-12-18T04:40:36;40.97;;;22.58;;
38725;SDS011;24474;48.906;8.808;2022-12-18T04:43:02;37.78;;;21.35;;
38725;SDS011;24474;48.906;8.808;2022-12-18T04:45:32;38.47;;;22.17;;
38725;SDS011;24474;48.906;8.808;2022-12-18T04:47:58;40.22;;;22.65;;
38725;SDS011;24474;48.906;8.808;2022-12-18T04:50:24;38.17;;;21.55;;
38725;SDS011;24474;48.906;8.808;2022-12-18T04:52:50;38.75;;;22.10;;
38725;SDS011;24474;48.906;8.808;2022-12-18T04:55:16;38.42;;;19.30;;
38725;SDS011;24474;48.906;8.808;2022-12-18T04:57:41;32.03;;;19.42;;
38725;SDS011;24474;48.906;8.808;2022-12-18T05:00:07;31.90;;;18.30;;
38725;SDS011;24474;48.906;8.808;2022-12-18T05:02:33;32.45;;;18.70;;
38725;SDS011;24474;48.906;8.808;2022-12-18T05:04:59;34.78;;;18.95;;
38725;SDS011;24474;48.906;8.808;2022-12-18T05:07:24;34.00;;;19.73;;
38725;SDS011;24474;48.906;8.808;2022-12-18T05:09:50;36.97;;;20.00;;
38725;SDS011;24474;48.906;8.808;2022-12-18T05:12:16;34.70;;;20.27;;
38725;SDS011;24474;48.906;8.808;2022-12-18T05:14:42;35.53;;;19.83;;
38725;SDS011;24474;48.906;8.808;2022-12-18T05:17:07;33.33;;;19.88;;
38725;SDS011;24474;48.906;8.808;2022-12-18T05:19:33;36.40;;;21.05;;
38725;SDS011;24474;48.906;8.808;2022-12-18T05:21:59;34.75;;;19.08;;
38725;SDS011;24474;48.906;8.808;2022-12-18T05:24:32;32.05;;;18.23;;
38725;SDS011;24474;48.906;8.808;2022-12-18T05:26:58;29.98;;;17.52;;
38725;SDS011;24474;48.906;8.808;2022-12-18T05:29:23;31.92;;;18.08;;
38725;SDS011;24474;48.906;8.808;2022-12-18T05:31:49;33.75;;;19.83;;
38725;SDS011;24474;48.906;8.808;2022-12-18T05:34:14;34.35;;;18.42;;
38725;SDS011;24474;48.906;8.808;2022-12-18T05:36:40;34.05;;;18.98;;
38725;SDS011;24474;48.906;8.808;2022-12-18T05:39:06;29.35;;;17.92;;
38725;SDS011;24474;48.906;8.808;2022-12-18T05:41:32;30.13;;;17.27;;
38725;SDS011;24474;48.906;8.808;2022-12-18T05:43:58;31.35;;;18.65;;
38725;SDS011;24474;48.906;8.808;2022-12-18T05:46:24;29.95;;;16.95;;
38725;SDS011;24474;48.906;8.808;2022-12-18T05:48:50;32.40;;;17.65;;
38725;SDS011;24474;48.906;8.808;2022-12-18T05:51:17;31.58;;;16.83;;
38725;SDS011;24474;48.906;8.808;2022-12-18T05:53:45;30.85;;;17.80;;
38725;SDS011;24474;48.906;8.808;2022-12-18T05:56:12;32.90;;;17.05;;
38725;SDS011;24474;48.906;8.808;2022-12-18T05:58:39;29.27;;;16.65;;
38725;SDS011;24474;48.906;8.808;2022-12-18T06:01:06;32.75;;;17.73;;
38725;SDS011;24474;48.906;8.808;2022-12-18T06:03:34;29.63;;;17.50;;
38725;SDS011;24474;48.906;8.808;2022-12-18T06:05:59;31.55;;;17.33;;
38725;SDS011;24474;48.906;8.808;2022-12-18T06:08:29;31.45;;;16.52;;
38725;SDS011;24474;48.906;8.808;2022-12-18T06:10:54;33.85;;;18.10;;
38725;SDS011;24474;48.906;8.808;2022-12-18T06:13:20;37.55;;;19.95;;
38725;SDS011;24474;48.906;8.808;2022-12-18T06:15:46;33.65;;;17.38;;
38725;SDS011;24474;48.906;8.808;2022-12-18T06:18:12;32.92;;;18.58;;
38725;SDS011;24474;48.906;8.808;2022-12-18T06:20:39;33.55;;;18.58;;
38725;SDS011;24474;48.906;8.808;2022-12-18T06:23:06;34.38;;;18.63;;
38725;SDS011;24474;48.906;8.808;2022-12-18T06:25:32;36.25;;;18.00;;
38725;SDS011;24474;48.906;8.808;2022-12-18T06:27:58;33.72;;;18.90;;
38725;SDS011;24474;48.906;8.808;2022-12-18T06:30:24;34.45;;;18.92;;
38725;SDS011;24474;48.906;8.808;2022-12-18T06:32:50;36.95;;;19.10;;
38725;SDS011;24474;48.906;8.808;2022-12-18T06:35:16;40.40;;;19.95;;
38725;SDS011;24474;48.906;8.808;2022-12-18T06:37:41;43.60;;;20.08;;
38725;SDS011;24474;48.906;8.808;2022-12-18T06:40:10;41.60;;;20.63;;
38725;SDS011;24474;48.906;8.808;2022-12-18T06:42:36;39.22;;;19.85;;
38725;SDS011;24474;48.906;8.808;2022-12-18T06:45:01;40.80;;;20.15;;
38725;SDS011;24474;48.906;8.808;2022-12-18T06:47:27;43.13;;;21.75;;
38725;SDS011;24474;48.906;8.808;2022-12-18T06:49:53;41.58;;;21.08;;
38725;SDS011;24474;48.906;8.808;2022-12-18T06:52:18;45.35;;;21.85;;
38725;SDS011;24474;48.906;8.808;2022-12-18T06:54:46;45.15;;;21.02;;
38725;SDS011;24474;48.906;8.808;2022-12-18T06:57:12;45.13;;;21.63;;
38725;SDS011;24474;48.906;8.808;2022-12-18T06:59:38;44.72;;;22.02;;
38725;SDS011;24474;48.906;8.808;2022-12-18T07:02:03;50.05;;;23.20;;
38725;SDS011;24474;48.906;8.808;2022-12-18T07:04:29;44.47;;;21.83;;
38725;SDS011;24474;48.906;8.808;2022-12-18T07:06:56;41.90;;;21.73;;
38725;SDS011;24474;48.906;8.808;2022-12-18T07:09:22;44.67;;;21.42;;
38725;SDS011;24474;48.906;8.808;2022-12-18T07:11:48;46.90;;;23.02;;
38725;SDS011;24474;48.906;8.808;2022-12-18T07:14:14;47.60;;;22.13;;
38725;SDS011;24474;48.906;8.808;2022-12-18T07:16:40;50.42;;;23.27;;
38725;SDS011;24474;48.906;8.808;2022-12-18T07:19:05;46.90;;;22.05;;
38725;SDS011;24474;48.906;8.808;2022-12-18T07:21:31;45.53;;;22.67;;
38725;SDS011;24474;48.906;8.808;2022-12-18T07:23:57;41.75;;;21.58;;
38725;SDS011;24474;48.906;8.808;2022-12-18T07:26:24;41.67;;;22.02;;
38725;SDS011;24474;48.906;8.808;2022-12-18T07:28:54;48.92;;;23.02;;
38725;SDS011;24474;48.906;8.808;2022-12-18T07:31:20;45.42;;;22.83;;
38725;SDS011;24474;48.906;8.808;2022-12-18T07:33:47;43.80;;;23.20;;
38725;SDS011;24474;48.906;8.808;2022-12-18T07:36:13;46.22;;;23.42;;
38725;SDS011;24474;48.906;8.808;2022-12-18T07:38:39;43.15;;;21.63;;
38725;SDS011;24474;48.906;8.808;2022-12-18T07:41:14;46.95;;;23.58;;
38725;SDS011;24474;48.906;8.808;2022-12-18T07:43:40;46.88;;;24.75;;
38725;SDS011;24474;48.906;8.808;2022-12-18T07:46:06;42.92;;;22.65;;
38725;SDS011;24474;48.906;8.808;2022-12-18T07:48:33;45.05;;;22.33;;
38725;SDS011;24474;48.906;8.808;2022-12-18T07:51:03;50.72;;;23.23;;
38725;SDS011;24474;48.906;8.808;2022-12-18T07:53:32;46.47;;;22.50;;
38725;SDS011;24474;48.906;8.808;2022-12-18T07:55:59;47.95;;;23.67;;
38725;SDS011;24474;48.906;8.808;2022-12-18T07:58:27;47.22;;;20.80;;
38725;SDS011;24474;48.906;8.808;2022-12-18T08:00:54;43.42;;;22.13;;
38725;SDS011;24474;48.906;8.808;2022-12-18T08:03:26;48.83;;;23.80;;
38725;SDS011;24474;48.906;8.808;2022-12-18T08:05:52;45.63;;;22.60;;
38725;SDS011;24474;48.906;8.808;2022-12-18T08:08:18;46.35;;;23.20;;
38725;SDS011;24474;48.906;8.808;2022-12-18T08:10:43;52.25;;;24.70;;
38725;SDS011;24474;48.906;8.808;2022-12-18T08:13:09;45.55;;;22.60;;
38725;SDS011;24474;48.906;8.808;2022-12-18T08:15:35;45.90;;;23.67;;
38725;SDS011;24474;48.906;8.808;2022-12-18T08:18:00;43.08;;;21.65;;
38725;SDS011;24474;48.906;8.808;2022-12-18T08:20:26;43.42;;;22.70;;
38725;SDS011;24474;48.906;8.808;2022-12-18T08:22:52;46.22;;;23.20;;
38725;SDS011;24474;48.906;8.808;2022-12-18T08:25:20;46.35;;;23.50;;
38725;SDS011;24474;48.906;8.808;2022-12-18T08:27:46;41.97;;;21.75;;
38725;SDS011;24474;48.906;8.808;2022-12-18T08:30:11;44.50;;;23.10;;
38725;SDS011;24474;48.906;8.808;2022-12-18T08:32:37;44.80;;;22.17;;
38725;SDS011;24474;48.906;8.808;2022-12-18T08:35:03;39.03;;;22.00;;
38725;SDS011;24474;48.906;8.808;2022-12-18T08:37:29;43.20;;;21.73;;
38725;SDS011;24474;48.906;8.808;2022-12-18T08:39:56;47.72;;;25.10;;
38725;SDS011;24474;48.906;8.808;2022-12-18T08:42:21;45.38;;;22.60;;
38725;SDS011;24474;48.906;8.808;2022-12-18T08:45:05;43.83;;;22.05;;
38725;SDS011;24474;48.906;8.808;2022-12-18T08:47:31;42.80;;;23.85;;
38725;SDS011;24474;48.906;8.808;2022-12-18T08:49:57;43.08;;;22.77;;
38725;SDS011;24474;48.906;8.808;2022-12-18T08:52:22;39.80;;;20.98;;
38725;SDS011;24474;48.906;8.808;2022-12-18T08:54:48;40.78;;;21.55;;
38725;SDS011;24474;48.906;8.808;2022-12-18T08:57:14;41.15;;;21.50;;
38725;SDS011;24474;48.906;8.808;2022-12-18T08:59:41;38.88;;;20.23;;
38725;SDS011;24474;48.906;8.808;2022-12-18T09:02:07;39.80;;;21.75;;
38725;SDS011;24474;48.906;8.808;2022-12-18T09:04:35;41.78;;;21.67;;
38725;SDS011;24474;48.906;8.808;2022-12-18T09:07:00;38.85;;;21.65;;
38725;SDS011;24474;48.906;8.808;2022-12-18T09:09:26;42.72;;;22.35;;
38725;SDS011;24474;48.906;8.808;2022-12-18T09:11:52;41.95;;;21.77;;
38725;SDS011;24474;48.906;8.808;2022-12-18T09:14:17;39.00;;;21.38;;
38725;SDS011;24474;48.906;8.808;2022-12-18T09:16:43;44.40;;;22.63;;
38725;SDS011;24474;48.906;8.808;2022-12-18T09:19:09;41.13;;;23.50;;
38725;SDS011;24474;48.906;8.808;2022-12-18T09:21:35;39.08;;;21.60;;
38725;SDS011;24474;48.906;8.808;2022-12-18T09:24:01;43.60;;;21.50;;
38725;SDS011;24474;48.906;8.808;2022-12-18T09:26:27;41.58;;;23.13;;
38725;SDS011;24474;48.906;8.808;2022-12-18T09:28:55;40.70;;;21.95;;
38725;SDS011;24474;48.906;8.808;2022-12-18T09:31:21;45.35;;;24.85;;
38725;SDS011;24474;48.906;8.808;2022-12-18T09:33:47;43.70;;;23.83;;
38725;SDS011;24474;48.906;8.808;2022-12-18T09:36:14;45.38;;;23.50;;
38725;SDS011;24474;48.906;8.808;2022-12-18T09:38:44;39.88;;;21.67;;
38725;SDS011;24474;48.906;8.808;2022-12-18T09:44:11;45.67;;;25.15;;
38725;SDS011;24474;48.906;8.808;2022-12-18T09:46:43;44.92;;;24.27;;
38725;SDS011;24474;48.906;8.808;2022-12-18T09:49:13;44.65;;;24.02;;
38725;SDS011;24474;48.906;8.808;2022-12-18T09:54:38;40.58;;;22.40;;
38725;SDS011;24474;48.906;8.808;2022-12-18T09:57:17;43.80;;;22.73;;
38725;SDS011;24474;48.906;8.808;2022-12-18T09:59:53;49.90;;;25.98;;
38725;SDS011;24474;48.906;8.808;2022-12-18T10:02:33;43.88;;;21.95;;
38725;SDS011;24474;48.906;8.808;2022-12-18T10:15:56;44.65;;;23.17;;
38725;SDS011;24474;48.906;8.808;2022-12-18T10:18:55;45.25;;;24.15;;
38725;SDS011;24474;48.906;8.808;2022-12-18T10:21:48;44.85;;;23.02;;
38725;SDS011;24474;48.906;8.808;2022-12-18T10:27:06;46.30;;;23.33;;
38725;SDS011;24474;48.906;8.808;2022-12-18T10:29:42;47.63;;;23.75;;
38725;SDS011;24474;48.906;8.808;2022-12-18T10:32:14;45.63;;;24.10;;
38725;SDS011;24474;48.906;8.808;2022-12-18T10:34:44;41.05;;;22.55;;
38725;SDS011;24474;48.906;8.808;2022-12-18T10:37:18;41.25;;;22.25;;
38725;SDS011;24474;48.906;8.808;2022-12-18T10:42:32;43.22;;;22.83;;
38725;SDS011;24474;48.906;8.808;2022-12-18T10:45:02;45.05;;;24.85;;
38725;SDS011;24474;48.906;8.808;2022-12-18T10:47:33;43.63;;;22.92;;
38725;SDS011;24474;48.906;8.808;2022-12-18T10:49:59;40.05;;;21.83;;
38725;SDS011;24474;48.906;8.808;2022-12-18T10:52:25;42.97;;;23.60;;
38725;SDS011;24474;48.906;8.808;2022-12-18T10:55:13;43.70;;;23.17;;
38725;SDS011;24474;48.906;8.808;2022-12-18T10:57:42;42.67;;;22.60;;
38725;SDS011;24474;48.906;8.808;2022-12-18T11:02:46;45.08;;;22.42;;
38725;SDS011;24474;48.906;8.808;2022-12-18T11:05:31;45.40;;;23.60;;
38725;SDS011;24474;48.906;8.808;2022-12-18T11:07:59;40.80;;;23.20;;
38725;SDS011;24474;48.906;8.808;2022-12-18T11:10:28;39.47;;;22.17;;
38725;SDS011;24474;48.906;8.808;2022-12-18T11:13:11;44.35;;;22.45;;
38725;SDS011;24474;48.906;8.808;2022-12-18T11:15:43;44.92;;;23.50;;
38725;SDS011;24474;48.906;8.808;2022-12-18T11:20:59;42.00;;;23.52;;
38725;SDS011;24474;48.906;8.808;2022-12-18T11:23:31;39.83;;;22.98;;
38725;SDS011;24474;48.906;8.808;2022-12-18T11:25:58;48.22;;;24.70;;
38725;SDS011;24474;48.906;8.808;2022-12-18T11:28:34;42.42;;;23.33;;
38725;SDS011;24474;48.906;8.808;2022-12-18T11:33:51;34.42;;;19.55;;
38725;SDS011;24474;48.906;8.808;2022-12-18T11:36:36;41.85;;;23.50;;
38725;SDS011;24474;48.906;8.808;2022-12-18T11:39:08;44.80;;;23.83;;
38725;SDS011;24474;48.906;8.808;2022-12-18T11:42:11;41.50;;;22.13;;
38725;SDS011;24474;48.906;8.808;2022-12-18T11:44:48;41.80;;;23.83;;
38725;SDS011;24474;48.906;8.808;2022-12-18T11:50:05;42.53;;;23.52;;
38725;SDS011;24474;48.906;8.808;2022-12-18T11:52:54;32.28;;;18.77;;
38725;SDS011;24474;48.906;8.808;2022-12-18T11:57:55;42.55;;;23.70;;
38725;SDS011;24474;48.906;8.808;2022-12-18T12:08:09;43.58;;;24.83;;
38725;SDS011;24474;48.906;8.808;2022-12-18T12:11:04;46.80;;;23.77;;
38725;SDS011;24474;48.906;8.808;2022-12-18T12:33:59;46.58;;;25.85;;
38725;SDS011;24474;48.906;8.808;2022-12-18T12:38:56;44.47;;;25.65;;
38725;SDS011;24474;48.906;8.808;2022-12-18T12:41:26;39.30;;;21.27;;
38725;SDS011;24474;48.906;8.808;2022-12-18T12:44:19;44.38;;;24.98;;
38725;SDS011;24474;48.906;8.808;2022-12-18T12:46:49;42.85;;;25.17;;
38725;SDS011;24474;48.906;8.808;2022-12-18T12:49:17;45.83;;;25.77;;
38725;SDS011;24474;48.906;8.808;2022-12-18T12:51:47;43.10;;;26.13;;
38725;SDS011;24474;48.906;8.808;2022-12-18T12:54:21;42.38;;;24.90;;
38725;SDS011;24474;48.906;8.808;2022-12-18T13:05:41;53.63;;;28.50;;
38725;SDS011;24474;48.906;8.808;2022-12-18T13:10:51;53.90;;;28.30;;
38725;SDS011;24474;48.906;8.808;2022-12-18T13:13:51;46.88;;;27.13;;
38725;SDS011;24474;48.906;8.808;2022-12-18T13:16:20;51.65;;;28.73;;
38725;SDS011;24474;48.906;8.808;2022-12-18T13:18:49;48.20;;;27.98;;
38725;SDS011;24474;48.906;8.808;2022-12-18T13:24:15;50.25;;;27.42;;
38725;SDS011;24474;48.906;8.808;2022-12-18T13:26:51;46.15;;;26.23;;
38725;SDS011;24474;48.906;8.808;2022-12-18T13:37:53;45.90;;;26.92;;
38725;SDS011;24474;48.906;8.808;2022-12-18T13:40:45;48.65;;;25.33;;
38725;SDS011;24474;48.906;8.808;2022-12-18T13:43:27;44.80;;;25.73;;
38725;SDS011;24474;48.906;8.808;2022-12-18T13:46:20;42.85;;;24.90;;
38725;SDS011;24474;48.906;8.808;2022-12-18T13:48:57;43.30;;;25.13;;
38725;SDS011;24474;48.906;8.808;2022-12-18T13:51:33;43.47;;;23.77;;
38725;SDS011;24474;48.906;8.808;2022-12-18T13:54:02;44.95;;;25.45;;
38725;SDS011;24474;48.906;8.808;2022-12-18T14:01:57;43.35;;;24.10;;
38725;SDS011;24474;48.906;8.808;2022-12-18T14:04:28;41.70;;;23.02;;
38725;SDS011;24474;48.906;8.808;2022-12-18T14:07:01;40.92;;;22.30;;
38725;SDS011;24474;48.906;8.808;2022-12-18T14:09:54;52.00;;;32.05;;
38725;SDS011;24474;48.906;8.808;2022-12-18T14:12:23;41.88;;;24.40;;
38725;SDS011;24474;48.906;8.808;2022-12-18T14:15:15;51.78;;;27.42;;
38725;SDS011;24474;48.906;8.808;2022-12-18T14:17:49;48.00;;;28.23;;
38725;SDS011;24474;48.906;8.808;2022-12-18T14:20:16;47.83;;;25.67;;
38725;SDS011;24474;48.906;8.808;2022-12-18T14:22:47;44.72;;;24.95;;
38725;SDS011;24474;48.906;8.808;2022-12-18T14:25:29;34.77;;;20.03;;
38725;SDS011;24474;48.906;8.808;2022-12-18T14:30:59;45.53;;;25.73;;
38725;SDS011;24474;48.906;8.808;2022-12-18T14:33:29;44.70;;;26.52;;
38725;SDS011;24474;48.906;8.808;2022-12-18T14:35:57;46.92;;;26.73;;
38725;SDS011;24474;48.906;8.808;2022-12-18T14:40:53;44.30;;;23.33;;
38725;SDS011;24474;48.906;8.808;2022-12-18T14:43:28;45.97;;;24.70;;
38725;SDS011;24474;48.906;8.808;2022-12-18T14:51:59;42.08;;;23.85;;
38725;SDS011;24474;48.906;8.808;2022-12-18T14:54:27;44.42;;;24.83;;
38725;SDS011;24474;48.906;8.808;2022-12-18T14:59:40;41.88;;;23.85;;
38725;SDS011;24474;48.906;8.808;2022-12-18T15:05:02;48.58;;;24.45;;
38725;SDS011;24474;48.906;8.808;2022-12-18T15:07:46;48.63;;;27.52;;
38725;SDS011;24474;48.906;8.808;2022-12-18T15:10:20;48.58;;;27.23;;
38725;SDS011;24474;48.906;8.808;2022-12-18T15:25:44;39.38;;;21.63;;
38725;SDS011;24474;48.906;8.808;2022-12-18T15:36:15;52.15;;;27.90;;
38725;SDS011;24474;48.906;8.808;2022-12-18T15:41:13;48.33;;;25.02;;
38725;SDS011;24474;48.906;8.808;2022-12-18T15:43:40;46.60;;;25.90;;
38725;SDS011;24474;48.906;8.808;2022-12-18T15:46:09;51.38;;;27.38;;
38725;SDS011;24474;48.906;8.808;2022-12-18T15:48:46;52.00;;;26.30;;
38725;SDS011;24474;48.906;8.808;2022-12-18T15:51:18;46.03;;;27.98;;
38725;SDS011;24474;48.906;8.808;2022-12-18T15:53:50;46.55;;;26.23;;
38725;SDS011;24474;48.906;8.808;2022-12-18T15:56:19;47.72;;;25.77;;
38725;SDS011;24474;48.906;8.808;2022-12-18T16:01:55;48.67;;;25.60;;
38725;SDS011;24474;48.906;8.808;2022-12-18T16:04:21;51.63;;;26.50;;
38725;SDS011;24474;48.906;8.808;2022-12-18T16:06:48;48.67;;;26.02;;
38725;SDS011;24474;48.906;8.808;2022-12-18T16:09:17;48.47;;;25.23;;
38725;SDS011;24474;48.906;8.808;2022-12-18T16:11:43;50.72;;;25.80;;
38725;SDS011;24474;48.906;8.808;2022-12-18T16:14:16;42.72;;;24.75;;
38725;SDS011;24474;48.906;8.808;2022-12-18T16:16:45;51.58;;;27.05;;
38725;SDS011;24474;48.906;8.808;2022-12-18T16:19:13;47.95;;;27.20;;
38725;SDS011;24474;48.906;8.808;2022-12-18T16:21:39;47.00;;;25.40;;
38725;SDS011;24474;48.906;8.808;2022-12-18T16:24:05;48.40;;;25.27;;
38725;SDS011;24474;48.906;8.808;2022-12-18T16:26:36;51.42;;;26.52;;
38725;SDS011;24474;48.906;8.808;2022-12-18T16:29:04;47.05;;;25.80;;
38725;SDS011;24474;48.906;8.808;2022-12-18T16:31:30;52.13;;;26.95;;
38725;SDS011;24474;48.906;8.808;2022-12-18T16:36:55;44.95;;;25.23;;
38725;SDS011;24474;48.906;8.808;2022-12-18T16:39:22;49.33;;;25.83;;
38725;SDS011;24474;48.906;8.808;2022-12-18T16:41:51;49.97;;;26.17;;
38725;SDS011;24474;48.906;8.808;2022-12-18T16:44:17;47.75;;;26.48;;
38725;SDS011;24474;48.906;8.808;2022-12-18T16:46:50;50.80;;;26.98;;
38725;SDS011;24474;48.906;8.808;2022-12-18T16:49:16;52.50;;;28.50;;
38725;SDS011;24474;48.906;8.808;2022-12-18T16:51:43;47.88;;;26.02;;
38725;SDS011;24474;48.906;8.808;2022-12-18T16:54:12;52.95;;;27.92;;
38725;SDS011;24474;48.906;8.808;2022-12-18T16:56:40;46.33;;;26.77;;
38725;SDS011;24474;48.906;8.808;2022-12-18T16:59:07;51.28;;;26.90;;
38725;SDS011;24474;48.906;8.808;2022-12-18T17:01:38;47.78;;;25.17;;
38725;SDS011;24474;48.906;8.808;2022-12-18T17:04:06;51.42;;;27.92;;
38725;SDS011;24474;48.906;8.808;2022-12-18T17:06:37;48.55;;;26.70;;
38725;SDS011;24474;48.906;8.808;2022-12-18T17:09:06;51.60;;;29.35;;
38725;SDS011;24474;48.906;8.808;2022-12-18T17:11:36;47.33;;;26.48;;
38725;SDS011;24474;48.906;8.808;2022-12-18T17:14:08;48.33;;;27.40;;
38725;SDS011;24474;48.906;8.808;2022-12-18T17:16:39;51.17;;;27.83;;
38725;SDS011;24474;48.906;8.808;2022-12-18T17:19:05;50.08;;;27.90;;
38725;SDS011;24474;48.906;8.808;2022-12-18T17:21:31;49.03;;;27.17;;
38725;SDS011;24474;48.906;8.808;2022-12-18T17:23:59;54.55;;;28.40;;
38725;SDS011;24474;48.906;8.808;2022-12-18T17:26:27;56.40;;;30.08;;
38725;SDS011;24474;48.906;8.808;2022-12-18T17:28:56;52.58;;;29.08;;
38725;SDS011;24474;48.906;8.808;2022-12-18T17:31:23;53.55;;;29.60;;